Overview Statistics Trail Chart Weather Telemetry Raw packets
 

This is the latest recevied weather packets stored in our database for station/object N1SU-13. If no packets are shown the sender has not sent any weather packets the latest 10 day(s).

<< 30 31 32 33 34 35 36 >>
Time Temp. Humidity Pressure Rain* Wind** Luminosity Snow
1788230986 20° C 66% 1006.6 hPa - - - -
1788230357 20.56° C 64% 1006.7 hPa - - - -
1788229738 21.11° C 63% 1006.6 hPa - - - -
1788229037 21.11° C 62% 1006.5 hPa - - - -
1788228384 21.67° C 61% 1006.4 hPa - - - -
1788227717 21.67° C 60% 1006.4 hPa - - - -
1788227023 22.22° C 59% 1006.4 hPa - - - -
1788226464 22.78° C 57% 1006.3 hPa - - - -
1788225794 23.33° C 55% 1006.2 hPa - - - -
1788225230 23.89° C 52% 1006.1 hPa - - - -
1788224642 23.89° C 50% 1006.1 hPa - - - -
1788223958 24.44° C 50% 1006.1 hPa - - - -
1788223342 24.44° C 49% 1006 hPa - - - -
1788222646 24.44° C 49% 1006.1 hPa - - - -
1788221999 24.44° C 49% 1006.3 hPa - - - -
1788221336 24.44° C 50% 1006.2 hPa - - - -
1788220752 24.44° C 51% 1006.4 hPa - - - -
1788220180 23.89° C 52% 1006.5 hPa - - - -
1788219518 23.89° C 53% 1006.7 hPa - - - -
1788218872 23.33° C 52% 1006.8 hPa - - - -
1788218184 23.89° C 51% 1006.8 hPa - - - -
1788217507 23.33° C 51% 1007 hPa - - - -
1788216804 22.78° C 54% 1007.1 hPa - - - -
1788216228 22.78° C 54% 1007.2 hPa - - - -
1788215559 22.78° C 54% 1007.5 hPa - - - -

* Rain since midnight (hover to see other rain measurements)
** Current wind speed in m/s (hover to see current wind gust speed)